sensor_id;sensor_type;location;lat;lon;timestamp;temperature;humidity
38380;DHT22;38377;47.418;18.882;2022-09-13T00:00:39;9.80;99.90
38380;DHT22;38377;47.418;18.882;2022-09-13T00:03:06;9.80;99.90
38380;DHT22;38377;47.418;18.882;2022-09-13T00:05:32;9.70;99.90
38380;DHT22;38377;47.418;18.882;2022-09-13T00:07:58;9.70;99.90
38380;DHT22;38377;47.418;18.882;2022-09-13T00:10:24;9.60;99.90
38380;DHT22;38377;47.418;18.882;2022-09-13T00:12:51;9.60;99.90
38380;DHT22;38377;47.418;18.882;2022-09-13T00:15:17;9.50;99.90
38380;DHT22;38377;47.418;18.882;2022-09-13T00:17:43;9.50;99.90
38380;DHT22;38377;47.418;18.882;2022-09-13T00:20:09;9.40;99.90
38380;DHT22;38377;47.418;18.882;2022-09-13T00:22:35;9.40;99.90
38380;DHT22;38377;47.418;18.882;2022-09-13T00:25:02;9.40;99.90
38380;DHT22;38377;47.418;18.882;2022-09-13T00:27:28;9.40;99.90
38380;DHT22;38377;47.418;18.882;2022-09-13T00:29:53;9.40;99.90
38380;DHT22;38377;47.418;18.882;2022-09-13T00:32:19;9.30;99.90
38380;DHT22;38377;47.418;18.882;2022-09-13T00:34:45;9.30;99.90
38380;DHT22;38377;47.418;18.882;2022-09-13T00:37:10;9.20;99.90
38380;DHT22;38377;47.418;18.882;2022-09-13T00:39:36;9.20;99.90
38380;DHT22;38377;47.418;18.882;2022-09-13T00:42:02;9.20;99.90
38380;DHT22;38377;47.418;18.882;2022-09-13T00:50:33;9.10;99.90
38380;DHT22;38377;47.418;18.882;2022-09-13T00:55:46;9.10;99.90
38380;DHT22;38377;47.418;18.882;2022-09-13T01:00:56;9.00;99.90
38380;DHT22;38377;47.418;18.882;2022-09-13T01:03:26;9.00;99.90
38380;DHT22;38377;47.418;18.882;2022-09-13T01:05:58;9.00;99.90
38380;DHT22;38377;47.418;18.882;2022-09-13T01:08:25;9.00;99.90
38380;DHT22;38377;47.418;18.882;2022-09-13T01:10:53;9.10;99.90
38380;DHT22;38377;47.418;18.882;2022-09-13T01:13:23;9.10;99.90
38380;DHT22;38377;47.418;18.882;2022-09-13T01:15:49;9.20;99.90
38380;DHT22;38377;47.418;18.882;2022-09-13T01:18:15;9.20;99.90
38380;DHT22;38377;47.418;18.882;2022-09-13T01:47:00;8.60;99.90
38380;DHT22;38377;47.418;18.882;2022-09-13T01:52:23;8.50;99.90
38380;DHT22;38377;47.418;18.882;2022-09-13T01:54:54;8.50;99.90
38380;DHT22;38377;47.418;18.882;2022-09-13T01:57:30;8.50;99.90
38380;DHT22;38377;47.418;18.882;2022-09-13T02:00:13;8.60;99.90
38380;DHT22;38377;47.418;18.882;2022-09-13T02:05:23;8.80;99.90
38380;DHT22;38377;47.418;18.882;2022-09-13T02:07:59;8.80;99.90
38380;DHT22;38377;47.418;18.882;2022-09-13T02:10:34;8.70;99.90
38380;DHT22;38377;47.418;18.882;2022-09-13T02:13:05;8.50;99.90
38380;DHT22;38377;47.418;18.882;2022-09-13T02:15:39;8.50;99.90
38380;DHT22;38377;47.418;18.882;2022-09-13T02:18:07;8.50;99.90
38380;DHT22;38377;47.418;18.882;2022-09-13T02:20:43;8.40;99.90
38380;DHT22;38377;47.418;18.882;2022-09-13T02:23:17;8.40;99.90
38380;DHT22;38377;47.418;18.882;2022-09-13T02:25:48;8.40;99.90
38380;DHT22;38377;47.418;18.882;2022-09-13T02:28:21;8.40;99.90
38380;DHT22;38377;47.418;18.882;2022-09-13T02:30:51;8.50;99.90
38380;DHT22;38377;47.418;18.882;2022-09-13T02:33:46;8.50;99.90
38380;DHT22;38377;47.418;18.882;2022-09-13T02:36:21;8.60;99.90
38380;DHT22;38377;47.418;18.882;2022-09-13T02:44:06;8.50;99.90
38380;DHT22;38377;47.418;18.882;2022-09-13T02:52:47;8.30;99.90
38380;DHT22;38377;47.418;18.882;2022-09-13T03:00:18;8.30;99.90
38380;DHT22;38377;47.418;18.882;2022-09-13T03:02:46;8.30;99.90
38380;DHT22;38377;47.418;18.882;2022-09-13T03:05:13;8.30;99.90
38380;DHT22;38377;47.418;18.882;2022-09-13T03:07:38;8.30;99.90
38380;DHT22;38377;47.418;18.882;2022-09-13T03:10:07;8.40;99.90
38380;DHT22;38377;47.418;18.882;2022-09-13T03:21:00;8.30;99.90
38380;DHT22;38377;47.418;18.882;2022-09-13T03:32:12;8.10;99.90
38380;DHT22;38377;47.418;18.882;2022-09-13T03:38:00;8.10;99.90
38380;DHT22;38377;47.418;18.882;2022-09-13T03:40:45;8.10;99.90
38380;DHT22;38377;47.418;18.882;2022-09-13T03:43:30;8.10;99.90
38380;DHT22;38377;47.418;18.882;2022-09-13T03:46:04;8.00;99.90
38380;DHT22;38377;47.418;18.882;2022-09-13T03:48:34;7.90;99.90
38380;DHT22;38377;47.418;18.882;2022-09-13T03:51:03;8.00;99.90
38380;DHT22;38377;47.418;18.882;2022-09-13T03:53:30;8.00;99.90
38380;DHT22;38377;47.418;18.882;2022-09-13T03:55:58;7.90;99.90
38380;DHT22;38377;47.418;18.882;2022-09-13T03:58:25;7.90;99.90
38380;DHT22;38377;47.418;18.882;2022-09-13T04:00:51;7.90;99.90
38380;DHT22;38377;47.418;18.882;2022-09-13T04:03:18;7.90;99.90
38380;DHT22;38377;47.418;18.882;2022-09-13T04:05:45;8.00;99.90
38380;DHT22;38377;47.418;18.882;2022-09-13T04:08:10;8.10;99.90
38380;DHT22;38377;47.418;18.882;2022-09-13T04:10:39;8.10;99.90
38380;DHT22;38377;47.418;18.882;2022-09-13T04:13:05;8.00;99.90
38380;DHT22;38377;47.418;18.882;2022-09-13T04:15:31;7.90;99.90
38380;DHT22;38377;47.418;18.882;2022-09-13T04:17:57;7.90;99.90
38380;DHT22;38377;47.418;18.882;2022-09-13T04:20:22;8.00;99.90
38380;DHT22;38377;47.418;18.882;2022-09-13T04:22:53;8.00;99.90
38380;DHT22;38377;47.418;18.882;2022-09-13T04:25:20;8.00;99.90
38380;DHT22;38377;47.418;18.882;2022-09-13T04:27:47;8.10;99.90
38380;DHT22;38377;47.418;18.882;2022-09-13T04:30:13;8.00;99.90
38380;DHT22;38377;47.418;18.882;2022-09-13T04:32:41;7.90;99.90
38380;DHT22;38377;47.418;18.882;2022-09-13T04:35:07;7.90;99.90
38380;DHT22;38377;47.418;18.882;2022-09-13T04:37:33;7.80;99.90
38380;DHT22;38377;47.418;18.882;2022-09-13T04:39:59;7.80;99.90
38380;DHT22;38377;47.418;18.882;2022-09-13T04:42:24;7.90;99.90
38380;DHT22;38377;47.418;18.882;2022-09-13T04:44:50;7.90;99.90
38380;DHT22;38377;47.418;18.882;2022-09-13T04:47:16;8.00;99.90
38380;DHT22;38377;47.418;18.882;2022-09-13T04:49:41;8.00;99.90
38380;DHT22;38377;47.418;18.882;2022-09-13T04:52:07;8.00;99.90
38380;DHT22;38377;47.418;18.882;2022-09-13T04:54:33;8.00;99.90
38380;DHT22;38377;47.418;18.882;2022-09-13T04:56:58;8.00;99.90
38380;DHT22;38377;47.418;18.882;2022-09-13T04:59:24;8.00;99.90
38380;DHT22;38377;47.418;18.882;2022-09-13T05:01:50;8.00;99.90
38380;DHT22;38377;47.418;18.882;2022-09-13T05:04:16;8.00;99.90
38380;DHT22;38377;47.418;18.882;2022-09-13T05:06:41;8.20;99.90
38380;DHT22;38377;47.418;18.882;2022-09-13T05:09:12;8.20;99.90
38380;DHT22;38377;47.418;18.882;2022-09-13T05:11:38;8.30;99.90
38380;DHT22;38377;47.418;18.882;2022-09-13T05:14:03;8.40;99.90
38380;DHT22;38377;47.418;18.882;2022-09-13T05:16:31;8.50;99.90
38380;DHT22;38377;47.418;18.882;2022-09-13T05:18:58;8.60;99.90
38380;DHT22;38377;47.418;18.882;2022-09-13T05:21:24;8.70;99.90
38380;DHT22;38377;47.418;18.882;2022-09-13T05:23:52;8.80;99.90
38380;DHT22;38377;47.418;18.882;2022-09-13T05:26:19;8.90;99.90
38380;DHT22;38377;47.418;18.882;2022-09-13T05:28:45;9.00;99.90
38380;DHT22;38377;47.418;18.882;2022-09-13T05:31:23;9.20;99.90
38380;DHT22;38377;47.418;18.882;2022-09-13T05:33:54;9.30;99.90
38380;DHT22;38377;47.418;18.882;2022-09-13T05:36:20;9.40;99.90
38380;DHT22;38377;47.418;18.882;2022-09-13T05:38:45;9.60;99.90
38380;DHT22;38377;47.418;18.882;2022-09-13T05:41:11;9.70;99.90
38380;DHT22;38377;47.418;18.882;2022-09-13T05:43:37;9.80;99.90
38380;DHT22;38377;47.418;18.882;2022-09-13T05:46:04;10.00;99.90
38380;DHT22;38377;47.418;18.882;2022-09-13T05:48:31;10.20;99.90
38380;DHT22;38377;47.418;18.882;2022-09-13T05:51:05;10.50;99.90
38380;DHT22;38377;47.418;18.882;2022-09-13T05:53:32;10.90;99.90
38380;DHT22;38377;47.418;18.882;2022-09-13T05:55:58;11.10;99.90
38380;DHT22;38377;47.418;18.882;2022-09-13T05:58:24;11.30;99.90
38380;DHT22;38377;47.418;18.882;2022-09-13T06:00:54;11.50;99.90
38380;DHT22;38377;47.418;18.882;2022-09-13T06:03:20;11.70;99.90
38380;DHT22;38377;47.418;18.882;2022-09-13T06:05:46;11.90;99.90
38380;DHT22;38377;47.418;18.882;2022-09-13T06:08:12;12.10;99.90
38380;DHT22;38377;47.418;18.882;2022-09-13T06:10:37;12.30;99.90
38380;DHT22;38377;47.418;18.882;2022-09-13T06:13:03;12.50;99.90
38380;DHT22;38377;47.418;18.882;2022-09-13T06:15:29;12.80;99.90
38380;DHT22;38377;47.418;18.882;2022-09-13T06:17:54;13.40;99.90
38380;DHT22;38377;47.418;18.882;2022-09-13T06:20:20;14.20;99.90
38380;DHT22;38377;47.418;18.882;2022-09-13T06:22:48;14.90;99.90
38380;DHT22;38377;47.418;18.882;2022-09-13T06:25:15;15.10;99.90
38380;DHT22;38377;47.418;18.882;2022-09-13T06:27:41;15.40;99.90
38380;DHT22;38377;47.418;18.882;2022-09-13T06:30:07;15.50;99.90
38380;DHT22;38377;47.418;18.882;2022-09-13T06:32:36;15.50;99.90
38380;DHT22;38377;47.418;18.882;2022-09-13T06:35:02;15.60;99.90
38380;DHT22;38377;47.418;18.882;2022-09-13T06:37:27;15.70;99.90
38380;DHT22;38377;47.418;18.882;2022-09-13T06:39:53;15.80;99.90
38380;DHT22;38377;47.418;18.882;2022-09-13T06:42:19;16.00;99.90
38380;DHT22;38377;47.418;18.882;2022-09-13T06:44:44;16.10;99.40
38380;DHT22;38377;47.418;18.882;2022-09-13T06:47:11;16.20;99.20
38380;DHT22;38377;47.418;18.882;2022-09-13T06:49:37;16.30;98.90
38380;DHT22;38377;47.418;18.882;2022-09-13T06:52:03;16.40;99.90
38380;DHT22;38377;47.418;18.882;2022-09-13T06:54:29;16.50;98.70
38380;DHT22;38377;47.418;18.882;2022-09-13T06:56:54;16.70;98.50
38380;DHT22;38377;47.418;18.882;2022-09-13T06:59:20;16.70;98.00
38380;DHT22;38377;47.418;18.882;2022-09-13T07:01:46;16.80;96.40
38380;DHT22;38377;47.418;18.882;2022-09-13T07:04:16;16.90;97.00
38380;DHT22;38377;47.418;18.882;2022-09-13T07:06:46;17.10;98.20
38380;DHT22;38377;47.418;18.882;2022-09-13T07:09:20;17.30;96.00
38380;DHT22;38377;47.418;18.882;2022-09-13T07:11:48;17.20;95.20
38380;DHT22;38377;47.418;18.882;2022-09-13T07:14:25;17.20;97.40
38380;DHT22;38377;47.418;18.882;2022-09-13T07:16:51;17.50;95.60
38380;DHT22;38377;47.418;18.882;2022-09-13T07:19:22;17.50;96.30
38380;DHT22;38377;47.418;18.882;2022-09-13T07:21:49;17.70;96.10
38380;DHT22;38377;47.418;18.882;2022-09-13T07:24:16;17.70;94.80
38380;DHT22;38377;47.418;18.882;2022-09-13T07:26:41;17.80;94.10
38380;DHT22;38377;47.418;18.882;2022-09-13T07:29:10;17.90;94.80
38380;DHT22;38377;47.418;18.882;2022-09-13T07:31:39;17.90;94.40
38380;DHT22;38377;47.418;18.882;2022-09-13T07:34:18;18.00;96.30
38380;DHT22;38377;47.418;18.882;2022-09-13T07:36:45;18.00;94.20
38380;DHT22;38377;47.418;18.882;2022-09-13T07:39:12;18.00;94.30
38380;DHT22;38377;47.418;18.882;2022-09-13T07:41:38;17.50;95.30
38380;DHT22;38377;47.418;18.882;2022-09-13T07:44:04;17.50;96.00
38380;DHT22;38377;47.418;18.882;2022-09-13T07:46:32;17.90;94.60
38380;DHT22;38377;47.418;18.882;2022-09-13T07:49:01;17.90;94.70
38380;DHT22;38377;47.418;18.882;2022-09-13T07:51:34;17.70;94.90
38380;DHT22;38377;47.418;18.882;2022-09-13T07:54:03;17.70;94.60
38380;DHT22;38377;47.418;18.882;2022-09-13T07:56:34;18.10;96.00
38380;DHT22;38377;47.418;18.882;2022-09-13T07:59:02;18.30;94.30
38380;DHT22;38377;47.418;18.882;2022-09-13T08:01:35;18.50;94.60
38380;DHT22;38377;47.418;18.882;2022-09-13T08:04:06;18.70;94.00
38380;DHT22;38377;47.418;18.882;2022-09-13T08:06:32;18.80;94.00
38380;DHT22;38377;47.418;18.882;2022-09-13T08:08:58;18.60;93.80
38380;DHT22;38377;47.418;18.882;2022-09-13T08:11:30;18.30;94.30
38380;DHT22;38377;47.418;18.882;2022-09-13T08:13:57;18.20;94.40
38380;DHT22;38377;47.418;18.882;2022-09-13T08:16:23;18.40;94.70
38380;DHT22;38377;47.418;18.882;2022-09-13T08:18:52;18.50;93.40
38380;DHT22;38377;47.418;18.882;2022-09-13T08:21:18;18.70;93.30
38380;DHT22;38377;47.418;18.882;2022-09-13T08:23:44;18.90;92.50
38380;DHT22;38377;47.418;18.882;2022-09-13T08:26:10;19.20;93.80
38380;DHT22;38377;47.418;18.882;2022-09-13T08:28:37;19.30;93.10
38380;DHT22;38377;47.418;18.882;2022-09-13T08:31:10;19.50;93.40
38380;DHT22;38377;47.418;18.882;2022-09-13T08:33:36;19.50;91.80
38380;DHT22;38377;47.418;18.882;2022-09-13T08:36:03;19.30;91.80
38380;DHT22;38377;47.418;18.882;2022-09-13T08:38:30;19.00;92.10
38380;DHT22;38377;47.418;18.882;2022-09-13T08:41:00;19.10;92.20
38380;DHT22;38377;47.418;18.882;2022-09-13T08:48:44;19.80;91.40
38380;DHT22;38377;47.418;18.882;2022-09-13T08:53:59;19.80;89.00
38380;DHT22;38377;47.418;18.882;2022-09-13T08:56:55;20.10;90.10
38380;DHT22;38377;47.418;18.882;2022-09-13T08:59:44;20.30;87.20
38380;DHT22;38377;47.418;18.882;2022-09-13T09:05:24;20.40;87.70
38380;DHT22;38377;47.418;18.882;2022-09-13T09:10:30;20.50;87.10
38380;DHT22;38377;47.418;18.882;2022-09-13T09:15:53;20.20;85.00
38380;DHT22;38377;47.418;18.882;2022-09-13T09:18:32;20.10;87.40
38380;DHT22;38377;47.418;18.882;2022-09-13T09:21:00;20.40;88.60
38380;DHT22;38377;47.418;18.882;2022-09-13T09:23:51;20.60;89.00
38380;DHT22;38377;47.418;18.882;2022-09-13T09:29:14;20.80;88.00
38380;DHT22;38377;47.418;18.882;2022-09-13T09:39:51;20.90;85.20
38380;DHT22;38377;47.418;18.882;2022-09-13T09:42:21;21.00;86.80
38380;DHT22;38377;47.418;18.882;2022-09-13T09:47:28;21.20;85.00
38380;DHT22;38377;47.418;18.882;2022-09-13T09:50:10;21.40;81.80
38380;DHT22;38377;47.418;18.882;2022-09-13T09:55:29;21.00;82.20
38380;DHT22;38377;47.418;18.882;2022-09-13T10:00:26;20.60;82.60
38380;DHT22;38377;47.418;18.882;2022-09-13T10:02:59;20.60;82.20
38380;DHT22;38377;47.418;18.882;2022-09-13T10:05:26;20.80;84.20
38380;DHT22;38377;47.418;18.882;2022-09-13T10:08:01;20.80;83.40
38380;DHT22;38377;47.418;18.882;2022-09-13T10:10:43;20.90;81.20
38380;DHT22;38377;47.418;18.882;2022-09-13T10:13:19;20.90;82.60
38380;DHT22;38377;47.418;18.882;2022-09-13T10:16:00;20.80;81.80
38380;DHT22;38377;47.418;18.882;2022-09-13T10:18:31;20.80;79.60
38380;DHT22;38377;47.418;18.882;2022-09-13T10:21:06;20.60;80.00
38380;DHT22;38377;47.418;18.882;2022-09-13T10:23:34;20.40;80.90
38380;DHT22;38377;47.418;18.882;2022-09-13T10:26:09;20.50;81.90
38380;DHT22;38377;47.418;18.882;2022-09-13T10:31:20;21.30;81.80
38380;DHT22;38377;47.418;18.882;2022-09-13T10:33:58;21.30;77.40
38380;DHT22;38377;47.418;18.882;2022-09-13T10:36:28;21.40;80.30
38380;DHT22;38377;47.418;18.882;2022-09-13T10:39:00;21.60;80.00
38380;DHT22;38377;47.418;18.882;2022-09-13T10:41:30;22.00;77.60
38380;DHT22;38377;47.418;18.882;2022-09-13T10:44:01;21.90;75.70
38380;DHT22;38377;47.418;18.882;2022-09-13T10:46:30;21.70;75.10
38380;DHT22;38377;47.418;18.882;2022-09-13T10:48:57;21.70;76.90
38380;DHT22;38377;47.418;18.882;2022-09-13T10:56:35;21.50;76.30
38380;DHT22;38377;47.418;18.882;2022-09-13T10:59:21;21.60;75.90
38380;DHT22;38377;47.418;18.882;2022-09-13T11:13:18;21.50;77.80
38380;DHT22;38377;47.418;18.882;2022-09-13T11:15:58;21.50;75.00
38380;DHT22;38377;47.418;18.882;2022-09-13T11:21:11;21.10;74.50
38380;DHT22;38377;47.418;18.882;2022-09-13T11:37:28;21.30;74.90
38380;DHT22;38377;47.418;18.882;2022-09-13T11:40:19;21.40;76.30
38380;DHT22;38377;47.418;18.882;2022-09-13T11:56:34;21.90;72.80
38380;DHT22;38377;47.418;18.882;2022-09-13T12:01:54;22.20;73.10
38380;DHT22;38377;47.418;18.882;2022-09-13T12:04:32;22.30;71.90
38380;DHT22;38377;47.418;18.882;2022-09-13T12:07:02;22.20;71.10
38380;DHT22;38377;47.418;18.882;2022-09-13T12:09:34;22.20;74.90
38380;DHT22;38377;47.418;18.882;2022-09-13T12:12:04;22.00;72.80
38380;DHT22;38377;47.418;18.882;2022-09-13T12:17:08;22.30;74.00
38380;DHT22;38377;47.418;18.882;2022-09-13T12:19:43;22.40;72.80
38380;DHT22;38377;47.418;18.882;2022-09-13T12:22:10;22.30;72.30
38380;DHT22;38377;47.418;18.882;2022-09-13T12:24:47;22.40;73.70
38380;DHT22;38377;47.418;18.882;2022-09-13T12:30:20;22.40;72.10
38380;DHT22;38377;47.418;18.882;2022-09-13T12:32:47;22.50;73.90
38380;DHT22;38377;47.418;18.882;2022-09-13T12:38:38;22.50;72.90
38380;DHT22;38377;47.418;18.882;2022-09-13T12:41:31;22.60;72.30
38380;DHT22;38377;47.418;18.882;2022-09-13T13:00:12;22.20;75.80
38380;DHT22;38377;47.418;18.882;2022-09-13T13:02:55;22.00;73.80
38380;DHT22;38377;47.418;18.882;2022-09-13T13:05:34;22.10;76.40
38380;DHT22;38377;47.418;18.882;2022-09-13T13:08:04;22.10;76.90
38380;DHT22;38377;47.418;18.882;2022-09-13T13:10:35;22.10;73.50
38380;DHT22;38377;47.418;18.882;2022-09-13T13:13:32;22.10;76.10
38380;DHT22;38377;47.418;18.882;2022-09-13T13:16:02;22.20;76.50
38380;DHT22;38377;47.418;18.882;2022-09-13T13:18:48;22.20;76.00
38380;DHT22;38377;47.418;18.882;2022-09-13T13:21:36;22.20;75.70
38380;DHT22;38377;47.418;18.882;2022-09-13T13:29:29;22.20;75.40
38380;DHT22;38377;47.418;18.882;2022-09-13T13:34:44;22.60;74.80
38380;DHT22;38377;47.418;18.882;2022-09-13T13:39:45;22.80;71.90
38380;DHT22;38377;47.418;18.882;2022-09-13T13:42:28;22.50;74.80
38380;DHT22;38377;47.418;18.882;2022-09-13T13:50:16;22.70;73.90
38380;DHT22;38377;47.418;18.882;2022-09-13T13:55:36;22.60;76.00
38380;DHT22;38377;47.418;18.882;2022-09-13T13:58:11;22.50;75.30
38380;DHT22;38377;47.418;18.882;2022-09-13T14:00:48;22.60;74.70
38380;DHT22;38377;47.418;18.882;2022-09-13T14:20:12;22.40;73.40
38380;DHT22;38377;47.418;18.882;2022-09-13T14:22:39;22.30;74.80
38380;DHT22;38377;47.418;18.882;2022-09-13T14:25:23;22.20;74.50
38380;DHT22;38377;47.418;18.882;2022-09-13T14:27:54;22.00;74.20
38380;DHT22;38377;47.418;18.882;2022-09-13T14:32:53;22.30;75.00
38380;DHT22;38377;47.418;18.882;2022-09-13T14:35:29;22.30;73.40
38380;DHT22;38377;47.418;18.882;2022-09-13T14:38:08;22.30;74.50
38380;DHT22;38377;47.418;18.882;2022-09-13T14:40:34;22.30;75.20
38380;DHT22;38377;47.418;18.882;2022-09-13T14:43:00;22.30;73.00
38380;DHT22;38377;47.418;18.882;2022-09-13T14:45:37;22.30;73.00
38380;DHT22;38377;47.418;18.882;2022-09-13T14:48:18;22.20;76.50
38380;DHT22;38377;47.418;18.882;2022-09-13T14:50:55;22.20;76.10
38380;DHT22;38377;47.418;18.882;2022-09-13T14:53:24;22.10;77.00
38380;DHT22;38377;47.418;18.882;2022-09-13T14:55:59;22.10;77.00
38380;DHT22;38377;47.418;18.882;2022-09-13T14:58:45;21.90;74.60
38380;DHT22;38377;47.418;18.882;2022-09-13T15:01:18;21.90;74.60
38380;DHT22;38377;47.418;18.882;2022-09-13T15:03:47;21.70;74.60
38380;DHT22;38377;47.418;18.882;2022-09-13T15:06:29;21.50;75.30
38380;DHT22;38377;47.418;18.882;2022-09-13T15:09:15;21.30;77.10
38380;DHT22;38377;47.418;18.882;2022-09-13T15:11:58;21.10;77.90
38380;DHT22;38377;47.418;18.882;2022-09-13T15:14:36;20.90;79.00
38380;DHT22;38377;47.418;18.882;2022-09-13T15:19:48;20.70;81.20
38380;DHT22;38377;47.418;18.882;2022-09-13T15:22:29;20.60;80.60
38380;DHT22;38377;47.418;18.882;2022-09-13T15:24:57;20.60;81.60
38380;DHT22;38377;47.418;18.882;2022-09-13T15:27:29;20.60;81.40
38380;DHT22;38377;47.418;18.882;2022-09-13T15:29:58;20.50;80.60
38380;DHT22;38377;47.418;18.882;2022-09-13T15:32:43;20.40;83.30
38380;DHT22;38377;47.418;18.882;2022-09-13T15:35:30;20.40;82.80
38380;DHT22;38377;47.418;18.882;2022-09-13T15:40:43;20.30;85.00
38380;DHT22;38377;47.418;18.882;2022-09-13T15:43:09;20.30;84.60
38380;DHT22;38377;47.418;18.882;2022-09-13T15:45:34;20.30;83.30
38380;DHT22;38377;47.418;18.882;2022-09-13T15:48:00;20.30;84.60
38380;DHT22;38377;47.418;18.882;2022-09-13T15:50:28;20.20;84.50
38380;DHT22;38377;47.418;18.882;2022-09-13T15:52:56;20.20;85.30
38380;DHT22;38377;47.418;18.882;2022-09-13T15:55:23;20.20;84.40
38380;DHT22;38377;47.418;18.882;2022-09-13T15:57:50;20.10;85.20
38380;DHT22;38377;47.418;18.882;2022-09-13T16:00:21;20.10;85.20
38380;DHT22;38377;47.418;18.882;2022-09-13T16:02:47;20.00;84.40
38380;DHT22;38377;47.418;18.882;2022-09-13T16:05:13;19.90;89.20
38380;DHT22;38377;47.418;18.882;2022-09-13T16:07:39;19.80;89.40
38380;DHT22;38377;47.418;18.882;2022-09-13T16:10:11;19.80;89.70
38380;DHT22;38377;47.418;18.882;2022-09-13T16:12:37;19.70;88.70
38380;DHT22;38377;47.418;18.882;2022-09-13T16:15:02;19.60;87.90
38380;DHT22;38377;47.418;18.882;2022-09-13T16:17:28;19.60;91.30
38380;DHT22;38377;47.418;18.882;2022-09-13T16:19:54;19.40;91.20
38380;DHT22;38377;47.418;18.882;2022-09-13T16:22:20;19.40;91.50
38380;DHT22;38377;47.418;18.882;2022-09-13T16:24:46;19.40;91.40
38380;DHT22;38377;47.418;18.882;2022-09-13T16:27:13;19.30;91.20
38380;DHT22;38377;47.418;18.882;2022-09-13T16:29:40;19.20;92.60
38380;DHT22;38377;47.418;18.882;2022-09-13T16:32:06;19.10;93.30
38380;DHT22;38377;47.418;18.882;2022-09-13T16:34:31;19.00;93.00
38380;DHT22;38377;47.418;18.882;2022-09-13T16:36:57;18.90;92.10
38380;DHT22;38377;47.418;18.882;2022-09-13T16:39:23;18.90;92.60
38380;DHT22;38377;47.418;18.882;2022-09-13T16:41:48;18.80;93.10
38380;DHT22;38377;47.418;18.882;2022-09-13T16:44:15;18.70;93.50
38380;DHT22;38377;47.418;18.882;2022-09-13T16:46:40;18.60;93.30
38380;DHT22;38377;47.418;18.882;2022-09-13T16:49:07;18.50;93.60
38380;DHT22;38377;47.418;18.882;2022-09-13T16:51:33;18.40;94.40
38380;DHT22;38377;47.418;18.882;2022-09-13T16:53:59;18.40;95.10
38380;DHT22;38377;47.418;18.882;2022-09-13T16:56:26;18.30;95.40
38380;DHT22;38377;47.418;18.882;2022-09-13T16:58:52;18.30;95.70
38380;DHT22;38377;47.418;18.882;2022-09-13T17:01:21;18.20;96.20
38380;DHT22;38377;47.418;18.882;2022-09-13T17:03:47;18.10;96.40
38380;DHT22;38377;47.418;18.882;2022-09-13T17:06:15;18.10;96.40
38380;DHT22;38377;47.418;18.882;2022-09-13T17:08:46;18.00;96.10
38380;DHT22;38377;47.418;18.882;2022-09-13T17:11:14;18.00;95.90
38380;DHT22;38377;47.418;18.882;2022-09-13T17:13:40;17.90;95.10
38380;DHT22;38377;47.418;18.882;2022-09-13T17:18:47;17.80;94.40
38380;DHT22;38377;47.418;18.882;2022-09-13T17:21:13;17.70;95.80
38380;DHT22;38377;47.418;18.882;2022-09-13T17:23:39;17.70;97.10
38380;DHT22;38377;47.418;18.882;2022-09-13T17:26:05;17.60;97.40
38380;DHT22;38377;47.418;18.882;2022-09-13T17:28:30;17.50;97.80
38380;DHT22;38377;47.418;18.882;2022-09-13T17:30:56;17.40;97.90
38380;DHT22;38377;47.418;18.882;2022-09-13T17:33:22;17.20;97.90
38380;DHT22;38377;47.418;18.882;2022-09-13T17:35:57;17.10;98.10
38380;DHT22;38377;47.418;18.882;2022-09-13T17:38:23;17.00;99.20
38380;DHT22;38377;47.418;18.882;2022-09-13T17:40:58;16.80;99.90
38380;DHT22;38377;47.418;18.882;2022-09-13T17:43:24;16.70;99.90
38380;DHT22;38377;47.418;18.882;2022-09-13T17:45:49;16.60;99.90
38380;DHT22;38377;47.418;18.882;2022-09-13T17:48:15;16.50;99.90
38380;DHT22;38377;47.418;18.882;2022-09-13T17:50:41;16.40;99.90
38380;DHT22;38377;47.418;18.882;2022-09-13T17:53:06;16.30;99.90
38380;DHT22;38377;47.418;18.882;2022-09-13T17:55:32;16.20;99.90
38380;DHT22;38377;47.418;18.882;2022-09-13T17:57:57;16.10;99.90
38380;DHT22;38377;47.418;18.882;2022-09-13T18:00:23;16.00;99.90
38380;DHT22;38377;47.418;18.882;2022-09-13T18:02:49;15.90;99.90
38380;DHT22;38377;47.418;18.882;2022-09-13T18:05:14;15.90;99.90
38380;DHT22;38377;47.418;18.882;2022-09-13T18:07:40;15.70;99.90
38380;DHT22;38377;47.418;18.882;2022-09-13T18:10:06;15.70;99.90
38380;DHT22;38377;47.418;18.882;2022-09-13T18:12:32;15.60;99.90
38380;DHT22;38377;47.418;18.882;2022-09-13T18:14:58;15.50;99.90
38380;DHT22;38377;47.418;18.882;2022-09-13T18:17:24;15.50;99.90
38380;DHT22;38377;47.418;18.882;2022-09-13T18:19:49;15.50;99.90
38380;DHT22;38377;47.418;18.882;2022-09-13T18:22:15;15.40;99.90
38380;DHT22;38377;47.418;18.882;2022-09-13T18:24:41;15.30;99.90
38380;DHT22;38377;47.418;18.882;2022-09-13T18:27:07;15.20;99.90
38380;DHT22;38377;47.418;18.882;2022-09-13T18:29:32;15.30;99.90
38380;DHT22;38377;47.418;18.882;2022-09-13T18:31:58;15.30;99.90
38380;DHT22;38377;47.418;18.882;2022-09-13T18:34:24;15.30;99.90
38380;DHT22;38377;47.418;18.882;2022-09-13T18:36:49;15.20;99.90
38380;DHT22;38377;47.418;18.882;2022-09-13T18:39:20;15.10;99.90
38380;DHT22;38377;47.418;18.882;2022-09-13T18:41:47;15.00;99.90
38380;DHT22;38377;47.418;18.882;2022-09-13T18:44:15;15.00;99.90
38380;DHT22;38377;47.418;18.882;2022-09-13T18:46:41;14.90;99.90
38380;DHT22;38377;47.418;18.882;2022-09-13T18:49:08;14.80;99.90
38380;DHT22;38377;47.418;18.882;2022-09-13T18:51:39;14.70;99.90
38380;DHT22;38377;47.418;18.882;2022-09-13T18:54:06;14.70;99.90
38380;DHT22;38377;47.418;18.882;2022-09-13T18:56:33;14.70;99.90
38380;DHT22;38377;47.418;18.882;2022-09-13T18:59:01;14.70;99.90
38380;DHT22;38377;47.418;18.882;2022-09-13T19:01:32;14.70;99.90
38380;DHT22;38377;47.418;18.882;2022-09-13T19:04:15;14.60;99.90
38380;DHT22;38377;47.418;18.882;2022-09-13T19:06:43;14.50;99.90
38380;DHT22;38377;47.418;18.882;2022-09-13T19:09:10;14.40;99.90
38380;DHT22;38377;47.418;18.882;2022-09-13T19:11:42;14.40;99.90
38380;DHT22;38377;47.418;18.882;2022-09-13T19:14:08;14.30;99.90
38380;DHT22;38377;47.418;18.882;2022-09-13T19:16:35;14.30;99.90
38380;DHT22;38377;47.418;18.882;2022-09-13T19:19:01;14.20;99.90
38380;DHT22;38377;47.418;18.882;2022-09-13T19:21:29;14.20;99.90
38380;DHT22;38377;47.418;18.882;2022-09-13T19:23:56;14.20;99.90
38380;DHT22;38377;47.418;18.882;2022-09-13T19:26:25;14.20;99.90
38380;DHT22;38377;47.418;18.882;2022-09-13T19:28:53;14.20;99.90
38380;DHT22;38377;47.418;18.882;2022-09-13T19:31:22;14.10;99.90
38380;DHT22;38377;47.418;18.882;2022-09-13T19:33:48;14.10;99.90